Ellsworth, Michigan
Current Conditions -  °F | °C
As of 1:55 AM on Thursday 23 Oct 2014 (Local Time) from KCVX Reporting Station
Clear Clear  
Wind Chill: 29°   Ceiling: Unl
Heat Index: 33°   Visibility: 7mi
Dew Point: 33°   Wind: 5mph
Humidity: 100%   Direction: 120°ESE
Pressure: 30.3"   Gusts: NA
Location:  45.17°N, 85.25°W
Report Text: KCVX 230555Z AUTO 12004KT 7SM CLR 01/01 A3030 RMK AO2 T00070007 10026 20003 400961012
Loading
Personal Weather Stations






























Interactive Weather Map
Tropical Storm Tracking
New forecast layout! Learn more

10-Day Weather Forecast

Advertisements
Track Severe Weather on mobile